Time;durP1;ratioP1;P1;durP2;ratioP2;P2;SDS_P1;SDS_P2;PMS_P1;PMS_P2;Temp;Humidity;BMP_temperature;BMP_pressure;BME280_temperature;BME280_humidity;BME280_pressure;Samples;Min_cycle;Max_cycle;Signal;HPM_P1;HPM_P2
2022/04/02 00:02:15;;;;;;;;;;;;;;;20.56;41.37;98983.09;104227;1313;71967;-83
2022/04/02 00:04:51;;;;;;;;;;;;;;;20.56;41.50;98973.08;104203;1313;73968;-82
2022/04/02 00:07:27;;;;;;;;;;;;;;;20.56;41.34;98970.06;104217;1313;61301;-84
2022/04/02 00:10:04;;;;;;;;;;;;;;;20.55;41.55;98973.11;104219;1313;61154;-83
2022/04/02 00:12:59;;;;;;;;;;;;;;;;;;;;;
2022/04/02 00:15:57;;;;;;;;;;;;;;;20.55;41.46;98951.77;104302;1313;74766;-83
2022/04/02 00:18:52;;;;;;;;;;;;;;;20.55;41.47;98954.77;104309;1313;61309;-86
2022/04/02 00:21:18;;;;;;;;;;;;;;;20.55;41.65;98956.21;104335;1313;61216;-85
2022/04/02 00:24:10;;;;;;;;;;;;;;;20.55;41.72;98959.39;104273;1313;72979;-86
2022/04/02 00:26:47;;;;;;;;;;;;;;;20.55;41.34;98947.80;104280;1313;75752;-87
2022/04/02 00:29:33;;;;;;;;;;;;;;;;;;;;;
2022/04/02 00:32:12;;;;;;;;;;;;;;;;;;;;;
2022/04/02 00:35:08;;;;;;;;;;;;;;;20.54;41.48;98943.91;104304;1311;74248;-82
2022/04/02 00:37:54;;;;;;;;;;;;;;;20.54;41.70;98941.23;104194;1312;73382;-84
2022/04/02 00:40:25;;;;;;;;;;;;;;;20.54;41.69;98933.21;104292;1312;61302;-82
2022/04/02 00:43:01;;;;;;;;;;;;;;;20.55;41.62;98939.29;104277;1311;61341;-81
2022/04/02 00:45:47;;;;;;;;;;;;;;;20.55;41.75;98946.21;104317;1311;71550;-83
2022/04/02 00:48:33;;;;;;;;;;;;;;;;;;;;;
2022/04/02 00:51:13;;;;;;;;;;;;;;;20.54;41.78;98958.44;104209;1314;61092;-82
2022/04/02 00:53:55;;;;;;;;;;;;;;;20.54;41.93;98960.75;104266;1313;61202;-84
2022/04/02 00:56:47;;;;;;;;;;;;;;;20.54;41.54;98960.39;104316;1313;72738;-85
2022/04/02 00:59:36;;;;;;;;;;;;;;;20.54;41.68;98960.05;104241;1314;75204;-84
2022/04/02 01:02:07;;;;;;;;;;;;;;;20.54;41.87;98952.92;104331;1311;61387;-83
2022/04/02 01:05:13;;;;;;;;;;;;;;;20.54;41.81;98951.81;104300;1311;61206;-84
2022/04/02 01:08:21;;;;;;;;;;;;;;;20.54;41.72;98949.33;103557;1320;72520;-87
2022/04/02 01:11:06;;;;;;;;;;;;;;;;;;;;;
2022/04/02 01:14:26;;;;;;;;;;;;;;;20.54;41.90;98944.34;104075;1314;62267;-81
2022/04/02 01:16:38;;;;;;;;;;;;;;;20.54;42.01;98945.61;104071;1317;61310;-79
2022/04/02 01:19:31;;;;;;;;;;;;;;;20.54;41.96;98948.63;104187;1317;74152;-83
2022/04/02 01:22:22;;;;;;;;;;;;;;;20.54;41.98;98949.52;104244;1314;76012;-82
2022/04/02 01:26:02;;;;;;;;;;;;;;;20.54;41.97;98950.23;104141;1314;61196;-85
2022/04/02 01:28:33;;;;;;;;;;;;;;;;;;;;;
2022/04/02 01:31:49;;;;;;;;;;;;;;;20.54;41.81;98952.18;103433;1320;71566;-81
2022/04/02 01:34:35;;;;;;;;;;;;;;;;;;;;;
2022/04/02 01:37:06;;;;;;;;;;;;;;;20.54;41.92;98960.08;103417;1320;61429;-86
2022/04/02 01:39:38;;;;;;;;;;;;;;;20.54;41.90;98966.29;103319;1320;61329;-81
2022/04/02 01:42:26;;;;;;;;;;;;;;;20.53;41.95;98967.45;103480;1320;73941;-84
2022/04/02 01:45:10;;;;;;;;;;;;;;;20.54;41.97;98976.34;103679;1311;74759;-84
2022/04/02 01:48:05;;;;;;;;;;;;;;;20.54;41.94;98977.23;104332;1311;61157;-81
2022/04/02 01:50:39;;;;;;;;;;;;;;;20.54;41.94;98984.75;104341;1311;62002;-80
2022/04/02 01:53:31;;;;;;;;;;;;;;;;;;;;;
2022/04/02 01:56:03;;;;;;;;;;;;;;;20.53;42.12;98983.70;104342;1311;75925;-85
2022/04/02 01:58:46;;;;;;;;;;;;;;;20.53;42.06;98988.21;104334;1313;61195;-86
2022/04/02 02:01:21;;;;;;;;;;;;;;;20.53;42.08;98991.43;104317;1311;61187;-83
2022/04/02 02:04:07;;;;;;;;;;;;;;;20.53;42.21;98990.90;104305;1311;72976;-81
2022/04/02 02:06:40;;;;;;;;;;;;;;;20.52;42.19;98989.35;104270;1311;74829;-84
2022/04/02 02:09:08;;;;;;;;;;;;;;;20.53;42.22;98986.81;104624;1305;61259;-86
2022/04/02 02:11:47;;;;;;;;;;;;;;;;;;;;;
2022/04/02 02:14:22;;;;;;;;;;;;;;;20.52;42.20;98985.80;104698;1305;72702;-81
2022/04/02 02:16:59;;;;;;;;;;;;;;;20.52;42.15;98980.66;104866;1305;74761;-84
2022/04/02 02:19:37;;;;;;;;;;;;;;;20.52;42.24;98978.34;104723;1305;61179;-81
2022/04/02 02:22:25;;;;;;;;;;;;;;;20.51;42.00;98977.48;104883;1305;61234;-80
2022/04/02 02:25:02;;;;;;;;;;;;;;;20.51;42.14;98981.79;104326;1311;73379;-82
2022/04/02 02:28:08;;;;;;;;;;;;;;;20.51;42.09;98981.45;104311;1311;76322;-80
2022/04/02 02:30:55;;;;;;;;;;;;;;;20.51;42.24;98987.72;104349;1311;61663;-84
2022/04/02 02:36:34;;;;;;;;;;;;;;;20.51;42.21;98991.48;104335;1311;72933;-79
2022/04/02 02:39:05;;;;;;;;;;;;;;;20.51;42.25;98994.65;104309;1311;74998;-83
2022/04/02 02:41:55;;;;;;;;;;;;;;;;;;;;;
2022/04/02 02:44:38;;;;;;;;;;;;;;;20.51;42.15;98994.31;104322;1311;61298;-82
2022/04/02 02:47:19;;;;;;;;;;;;;;;20.51;42.34;98998.60;104329;1311;72369;-82
2022/04/02 02:49:53;;;;;;;;;;;;;;;20.50;42.17;98999.88;104331;1311;75017;-87
2022/04/02 02:52:19;;;;;;;;;;;;;;;20.50;42.24;99001.15;104354;1311;61854;-81
2022/04/02 02:54:45;;;;;;;;;;;;;;;20.50;42.25;99003.46;104309;1311;61378;-85
2022/04/02 02:57:31;;;;;;;;;;;;;;;20.50;42.33;99006.75;104359;1311;61273;-86
2022/04/02 03:00:21;;;;;;;;;;;;;;;20.50;42.24;99015.19;104344;1311;76219;-83
2022/04/02 03:03:10;;;;;;;;;;;;;;;20.49;42.11;99013.90;104683;1305;61193;-80
2022/04/02 03:05:36;;;;;;;;;;;;;;;20.49;42.11;99012.67;104656;1308;62536;-81
2022/04/02 03:08:30;;;;;;;;;;;;;;;20.50;42.35;99013.91;104724;1305;74002;-81
2022/04/02 03:10:59;;;;;;;;;;;;;;;20.50;42.16;99017.66;104690;1306;74865;-86
2022/04/02 03:13:44;;;;;;;;;;;;;;;20.49;42.32;99013.97;104902;1305;61288;-84
2022/04/02 03:16:16;;;;;;;;;;;;;;;20.49;42.32;99015.21;104886;1305;61097;-84
2022/04/02 03:19:07;;;;;;;;;;;;;;;;;;;;;
2022/04/02 03:21:48;;;;;;;;;;;;;;;20.48;42.42;99016.35;104696;1305;75921;-84
2022/04/02 03:24:26;;;;;;;;;;;;;;;20.49;42.27;99020.27;104887;1305;61629;-86
2022/04/02 03:27:19;;;;;;;;;;;;;;;20.48;42.15;99019.02;103897;1314;61167;-85
2022/04/02 03:29:50;;;;;;;;;;;;;;;20.49;42.31;99022.75;104307;1311;72714;-82
2022/04/02 03:32:46;;;;;;;;;;;;;;;20.49;42.37;99026.52;104292;1311;75834;-80
2022/04/02 03:35:20;;;;;;;;;;;;;;;20.48;42.14;99027.46;104340;1311;61179;-81
2022/04/02 03:37:55;;;;;;;;;;;;;;;20.48;42.31;99025.72;104364;1311;61935;-83
2022/04/02 03:40:33;;;;;;;;;;;;;;;20.48;42.34;99033.00;104309;1311;61324;-83
2022/04/02 03:49:36;;;;;;;;;;;;;;;;;;;;;
2022/04/02 03:52:24;;;;;;;;;;;;;;;20.48;42.34;99038.59;104283;1311;74331;-83
2022/04/02 03:55:11;;;;;;;;;;;;;;;;;;;;;
2022/04/02 03:57:40;;;;;;;;;;;;;;;20.47;42.38;99038.45;104309;1311;61269;-81
2022/04/02 04:00:32;;;;;;;;;;;;;;;20.47;42.36;99035.40;104326;1311;61340;-84
2022/04/02 04:03:19;;;;;;;;;;;;;;;;;;;;;
2022/04/02 04:06:05;;;;;;;;;;;;;;;20.48;42.45;99037.35;104664;1305;75997;-82
2022/04/02 04:08:45;;;;;;;;;;;;;;;20.47;42.33;99042.41;104294;1314;61322;-82
2022/04/02 04:11:25;;;;;;;;;;;;;;;20.47;42.36;99045.05;104246;1314;61741;-83
2022/04/02 04:14:12;;;;;;;;;;;;;;;20.47;42.31;99048.46;104228;1314;73576;-82
2022/04/02 04:16:46;;;;;;;;;;;;;;;20.47;42.40;99053.63;104302;1314;75795;-82
2022/04/02 04:19:35;;;;;;;;;;;;;;;20.47;42.40;99054.38;104284;1314;61361;-88
2022/04/02 04:22:22;;;;;;;;;;;;;;;20.47;42.53;99060.48;104330;1313;61469;-83
2022/04/02 04:24:58;;;;;;;;;;;;;;;20.47;42.21;99063.16;104323;1313;72659;-82
2022/04/02 04:27:46;;;;;;;;;;;;;;;20.47;42.49;99064.77;104335;1313;76663;-84
2022/04/02 04:30:25;;;;;;;;;;;;;;;20.47;42.42;99063.52;103616;1320;61323;-85
2022/04/02 04:33:42;;;;;;;;;;;;;;;;;;;;;
2022/04/02 04:36:18;;;;;;;;;;;;;;;20.46;42.39;99063.19;103301;1320;72191;-82
2022/04/02 04:39:10;;;;;;;;;;;;;;;20.47;42.50;99062.96;103553;1319;74978;-83
2022/04/02 04:41:55;;;;;;;;;;;;;;;20.47;42.44;99065.64;103628;1319;61182;-83
2022/04/02 04:47:38;;;;;;;;;;;;;;;20.47;42.47;99076.00;103400;1319;73773;-83
2022/04/02 04:50:48;;;;;;;;;;;;;;;20.47;42.43;99077.58;103412;1319;75526;-86
2022/04/02 04:53:40;;;;;;;;;;;;;;;;;;;;;
2022/04/02 04:56:18;;;;;;;;;;;;;;;20.48;42.48;99078.45;103559;1320;61236;-82
2022/04/02 04:58:57;;;;;;;;;;;;;;;20.48;42.49;99082.00;103253;1319;72676;-81
2022/04/02 05:01:47;;;;;;;;;;;;;;;20.48;42.55;99084.89;103609;1320;75341;-87
2022/04/02 05:04:17;;;;;;;;;;;;;;;20.48;42.51;99085.02;103575;1320;61764;-82
2022/04/02 05:06:54;;;;;;;;;;;;;;;20.49;42.49;99085.70;103635;1314;61836;-82
2022/04/02 05:09:52;;;;;;;;;;;;;;;20.48;42.46;99092.50;104206;1314;72898;-82
2022/04/02 05:12:38;;;;;;;;;;;;;;;20.48;42.42;99093.76;104261;1314;73755;-79
2022/04/02 05:15:08;;;;;;;;;;;;;;;20.48;42.56;99098.80;104114;1316;61358;-81
2022/04/02 05:17:59;;;;;;;;;;;;;;;20.48;42.70;99102.20;104280;1314;61896;-81
2022/04/02 05:20:42;;;;;;;;;;;;;;;20.48;42.65;99102.91;104240;1314;74132;-84
2022/04/02 05:23:32;;;;;;;;;;;;;;;20.49;42.59;99106.95;104199;1314;75874;-81
2022/04/02 05:26:16;;;;;;;;;;;;;;;;;;;;;
2022/04/02 05:29:13;;;;;;;;;;;;;;;20.48;42.59;99107.38;104634;1308;61270;-82
2022/04/02 05:31:47;;;;;;;;;;;;;;;20.48;42.49;99114.71;104710;1305;73482;-83
2022/04/02 05:34:49;;;;;;;;;;;;;;;20.48;42.61;99115.21;104715;1305;74943;-81
2022/04/02 05:37:42;;;;;;;;;;;;;;;20.48;42.69;99108.79;104706;1305;61246;-79
2022/04/02 05:40:16;;;;;;;;;;;;;;;20.48;42.57;99108.05;104720;1306;61190;-84
2022/04/02 05:43:02;;;;;;;;;;;;;;;20.48;42.52;99105.40;104788;1305;71998;-85
2022/04/02 05:45:37;;;;;;;;;;;;;;;20.48;42.43;99104.86;104697;1305;75653;-82
2022/04/02 05:48:03;;;;;;;;;;;;;;;20.48;42.52;99105.56;104611;1307;61343;-80
2022/04/02 05:50:41;;;;;;;;;;;;;;;20.48;42.61;99101.45;104712;1306;61334;-82
2022/04/02 05:53:41;;;;;;;;;;;;;;;20.48;42.63;99104.86;104872;1304;73807;-82
2022/04/02 05:56:06;;;;;;;;;;;;;;;20.48;42.66;99111.44;104857;1305;74770;-84
2022/04/02 05:58:52;;;;;;;;;;;;;;;20.48;42.61;99111.46;104375;1311;61251;-86
2022/04/02 06:01:38;;;;;;;;;;;;;;;20.48;42.60;99116.11;104338;1312;61323;-81
2022/04/02 06:04:23;;;;;;;;;;;;;;;;;;;;;
2022/04/02 06:06:57;;;;;;;;;;;;;;;20.50;42.66;99124.55;104231;1314;74534;-84
2022/04/02 06:09:46;;;;;;;;;;;;;;;20.50;42.48;99125.05;104337;1311;61363;-83
2022/04/02 06:12:32;;;;;;;;;;;;;;;20.50;42.59;99124.66;104392;1311;61408;-80
2022/04/02 06:15:10;;;;;;;;;;;;;;;20.51;42.67;99124.35;104319;1313;74050;-82
2022/04/02 06:17:46;;;;;;;;;;;;;;;;;;;;;
2022/04/02 06:20:27;;;;;;;;;;;;;;;20.53;42.87;99121.02;104362;1311;61489;-84
2022/04/02 06:23:06;;;;;;;;;;;;;;;20.54;42.71;99129.64;104309;1311;61327;-79
2022/04/02 06:25:45;;;;;;;;;;;;;;;20.55;42.68;99135.59;104346;1311;72903;-84
2022/04/02 06:28:21;;;;;;;;;;;;;;;20.57;42.66;99127.60;104282;1312;74893;-82
2022/04/02 06:31:06;;;;;;;;;;;;;;;;;;;;;
2022/04/02 06:33:46;;;;;;;;;;;;;;;20.59;42.92;99128.30;104355;1311;61713;-81
2022/04/02 06:36:23;;;;;;;;;;;;;;;20.60;42.94;99125.15;104494;1305;73849;-89
2022/04/02 06:38:56;;;;;;;;;;;;;;;20.61;42.96;99115.96;104662;1306;74779;-79
2022/04/02 06:41:43;;;;;;;;;;;;;;;20.62;43.05;99121.93;104710;1305;61290;-84
2022/04/02 06:44:20;;;;;;;;;;;;;;;20.63;42.94;99119.36;104719;1305;60614;-82
2022/04/02 06:46:53;;;;;;;;;;;;;;;20.64;42.92;99122.66;104097;1305;1073984;-86
2022/04/02 06:49:22;;;;;;;;;;;;;;;20.65;43.14;99132.02;104717;1306;75225;-81
2022/04/02 06:52:14;;;;;;;;;;;;;;;20.65;43.02;99135.57;104695;1305;61415;-85
2022/04/02 06:54:56;;;;;;;;;;;;;;;20.66;43.18;99139.92;104857;1305;61416;-82
2022/04/02 06:57:25;;;;;;;;;;;;;;;20.67;43.12;99141.27;104850;1305;72931;-82
2022/04/02 07:00:03;;;;;;;;;;;;;;;20.68;43.10;99155.18;104665;1306;74841;-84
2022/04/02 07:02:50;;;;;;;;;;;;;;;20.68;43.20;99156.52;104889;1305;61015;-82
2022/04/02 07:05:38;;;;;;;;;;;;;;;20.69;43.26;99164.70;104724;1305;62605;-82
2022/04/02 07:08:14;;;;;;;;;;;;;;;;;;;;;
2022/04/02 07:10:40;;;;;;;;;;;;;;;20.70;43.22;99171.21;104235;1314;74786;-83
2022/04/02 07:13:22;;;;;;;;;;;;;;;;;;;;;
2022/04/02 07:16:08;;;;;;;;;;;;;;;20.72;43.23;99179.27;104193;1316;61183;-81
2022/04/02 07:18:39;;;;;;;;;;;;;;;20.72;43.25;99169.57;104207;1314;72870;-86
2022/04/02 07:21:31;;;;;;;;;;;;;;;20.72;43.20;99186.36;104211;1314;74787;-81
2022/04/02 07:24:00;;;;;;;;;;;;;;;20.73;43.21;99180.20;104129;1314;61225;-81
2022/04/02 07:26:30;;;;;;;;;;;;;;;20.74;43.27;99190.02;104005;1314;61599;-84
2022/04/02 07:29:12;;;;;;;;;;;;;;;20.75;43.28;99189.75;104162;1314;72923;-83
2022/04/02 07:31:46;;;;;;;;;;;;;;;20.75;43.33;99184.02;103928;1314;75754;-80
2022/04/02 07:34:30;;;;;;;;;;;;;;;20.76;43.19;99189.48;103851;1314;61408;-80
2022/04/02 07:37:05;;;;;;;;;;;;;;;20.76;43.33;99191.72;103985;1314;61304;-81
2022/04/02 07:39:56;;;;;;;;;;;;;;;20.77;43.37;99202.03;104449;1305;73765;-81
2022/04/02 07:42:37;;;;;;;;;;;;;;;20.78;43.38;99198.06;104307;1311;74816;-79
2022/04/02 07:45:30;;;;;;;;;;;;;;;20.78;43.29;99198.20;104335;1311;61982;-84
2022/04/02 07:48:06;;;;;;;;;;;;;;;;;;;;;
2022/04/02 07:50:45;;;;;;;;;;;;;;;20.79;43.18;99205.45;104369;1311;73202;-82
2022/04/02 07:53:47;;;;;;;;;;;;;;;20.78;43.22;99205.52;104407;1311;74881;-85
2022/04/02 07:56:27;;;;;;;;;;;;;;;;;;;;;
2022/04/02 07:59:23;;;;;;;;;;;;;;;20.79;43.26;99217.27;104327;1311;61548;-81
2022/04/02 08:02:01;;;;;;;;;;;;;;;20.79;43.23;99216.55;104269;1311;72925;-81
2022/04/02 08:04:46;;;;;;;;;;;;;;;;;;;;;
2022/04/02 08:07:14;;;;;;;;;;;;;;;20.79;43.32;99216.69;104360;1310;61564;-79
2022/04/02 08:10:44;;;;;;;;;;;;;;;;;;;;;
2022/04/02 08:12:44;;;;;;;;;;;;;;;20.79;43.11;99210.50;104140;1313;72692;-83
2022/04/02 08:15:26;;;;;;;;;;;;;;;20.79;43.23;99210.83;104178;1314;75804;-84
2022/04/02 08:18:06;;;;;;;;;;;;;;;20.79;43.40;99216.36;104371;1311;61216;-84
2022/04/02 08:20:52;;;;;;;;;;;;;;;20.79;43.14;99220.50;104607;1306;61294;-83
2022/04/02 08:23:37;;;;;;;;;;;;;;;;;;;;;
2022/04/02 08:26:13;;;;;;;;;;;;;;;20.78;43.42;99220.17;104914;1305;74668;-84
2022/04/02 08:29:00;;;;;;;;;;;;;;;;;;;;;
2022/04/02 08:31:59;;;;;;;;;;;;;;;20.78;43.27;99222.14;104750;1305;61289;-83
2022/04/02 08:34:57;;;;;;;;;;;;;;;;;;;;;
2022/04/02 08:40:56;;;;;;;;;;;;;;;;;;;;;
2022/04/02 08:43:47;;;;;;;;;;;;;;;20.78;43.23;99223.41;104372;1311;61284;-82
2022/04/02 08:46:50;;;;;;;;;;;;;;;;;;;;;
2022/04/02 08:49:48;;;;;;;;;;;;;;;20.78;43.39;99228.97;103805;1317;75677;-86
2022/04/02 08:52:31;;;;;;;;;;;;;;;20.78;43.34;99226.63;103173;1322;60448;-85
2022/04/02 08:56:00;;;;;;;;;;;;;;;20.78;43.36;99225.23;103189;1323;61410;-78
2022/04/02 08:58:56;;;;;;;;;;;;;;;20.78;43.52;99224.13;103174;1323;72719;-82
2022/04/02 09:05:17;;;;;;;;;;;;;;;;;;;;;
2022/04/02 09:08:12;;;;;;;;;;;;;;;20.78;43.42;99223.95;102452;1335;59593;-82
2022/04/02 09:11:18;;;;;;;;;;;;;;;20.78;43.42;99224.16;102184;1335;71241;-83
2022/04/02 09:14:11;;;;;;;;;;;;;;;20.78;43.39;99233.25;101969;1338;75035;-79
2022/04/02 09:17:26;;;;;;;;;;;;;;;;;;;;;
2022/04/02 09:20:22;;;;;;;;;;;;;;;20.78;43.43;99225.06;102305;1335;61288;-81
2022/04/02 09:23:18;;;;;;;;;;;;;;;;;;;;;
2022/04/02 09:25:59;;;;;;;;;;;;;;;20.78;43.33;99224.46;102544;1332;74667;-82
2022/04/02 09:28:45;;;;;;;;;;;;;;;20.78;43.40;99217.90;102490;1329;61589;-81
2022/04/02 09:31:48;;;;;;;;;;;;;;;20.77;43.43;99222.59;102533;1329;62953;-81
2022/04/02 09:34:17;;;;;;;;;;;;;;;20.77;43.30;99221.73;102535;1329;72233;-79
2022/04/02 09:36:52;;;;;;;;;;;;;;;20.77;43.33;99229.94;102511;1329;75484;-79
2022/04/02 09:39:37;;;;;;;;;;;;;;;20.78;43.22;99228.09;102602;1329;61612;-81
2022/04/02 09:42:29;;;;;;;;;;;;;;;20.77;43.39;99225.44;103198;1319;61312;-83
2022/04/02 09:45:07;;;;;;;;;;;;;;;20.77;43.15;99236.90;103589;1319;74221;-83
2022/04/02 09:47:53;;;;;;;;;;;;;;;20.76;43.26;99226.23;103707;1317;76125;-82
2022/04/02 09:50:24;;;;;;;;;;;;;;;20.76;43.13;99236.60;103375;1314;61861;-84
2022/04/02 09:53:43;;;;;;;;;;;;;;;20.76;43.30;99240.38;104219;1312;61313;-84
2022/04/02 09:56:05;;;;;;;;;;;;;;;20.76;43.36;99238.96;104209;1314;73891;-81
2022/04/02 09:58:47;;;;;;;;;;;;;;;20.76;43.23;99231.77;104223;1314;74227;-84
2022/04/02 10:01:22;;;;;;;;;;;;;;;20.77;43.16;99237.83;104146;1314;61164;-85
2022/04/02 10:04:07;;;;;;;;;;;;;;;20.76;43.07;99250.96;104230;1314;61574;-83
2022/04/02 10:07:03;;;;;;;;;;;;;;;20.76;43.24;99259.88;104259;1314;73799;-81
2022/04/02 10:09:36;;;;;;;;;;;;;;;20.75;43.07;99248.85;104480;1308;76020;-83
2022/04/02 10:12:30;;;;;;;;;;;;;;;20.75;43.14;99245.27;104496;1308;61546;-85
2022/04/02 10:15:03;;;;;;;;;;;;;;;20.75;43.02;99245.66;104601;1308;62229;-82
2022/04/02 10:17:35;;;;;;;;;;;;;;;20.75;43.23;99245.44;104520;1309;72802;-81
2022/04/02 10:20:32;;;;;;;;;;;;;;;20.75;43.09;99251.77;104517;1308;74733;-82
2022/04/02 10:23:23;;;;;;;;;;;;;;;20.75;43.14;99247.66;104704;1305;61273;-79
2022/04/02 10:26:20;;;;;;;;;;;;;;;20.74;42.92;99250.55;104687;1305;61847;-79
2022/04/02 10:28:51;;;;;;;;;;;;;;;20.74;43.07;99247.17;104181;1311;73811;-81
2022/04/02 10:31:29;;;;;;;;;;;;;;;20.75;42.99;99240.36;104226;1311;75233;-82
2022/04/02 10:34:40;;;;;;;;;;;;;;;20.75;43.10;99238.52;103770;1316;61544;-81
2022/04/02 10:37:32;;;;;;;;;;;;;;;20.75;43.19;99241.91;103224;1320;61201;-80
2022/04/02 10:40:00;;;;;;;;;;;;;;;20.75;43.15;99249.26;103168;1323;72821;-82
2022/04/02 10:42:49;;;;;;;;;;;;;;;20.75;43.21;99252.08;103320;1321;73824;-83
2022/04/02 10:45:26;;;;;;;;;;;;;;;20.75;43.24;99251.37;102994;1322;61271;-81
2022/04/02 10:48:02;;;;;;;;;;;;;;;20.75;43.14;99244.73;103079;1320;61178;-79
2022/04/02 10:50:31;;;;;;;;;;;;;;;20.75;43.17;99248.02;103363;1318;73039;-84
2022/04/02 10:53:18;;;;;;;;;;;;;;;20.74;43.12;99249.65;103341;1321;74683;-84
2022/04/02 10:56:03;;;;;;;;;;;;;;;20.74;43.15;99254.84;103359;1320;61169;-80
2022/04/02 10:58:35;;;;;;;;;;;;;;;20.73;43.06;99257.77;102968;1323;61095;-83
2022/04/02 11:01:10;;;;;;;;;;;;;;;20.74;43.19;99255.06;103095;1321;73386;-81
2022/04/02 11:03:50;;;;;;;;;;;;;;;20.74;43.14;99254.19;103146;1323;74732;-84
2022/04/02 11:06:23;;;;;;;;;;;;;;;20.73;43.02;99254.61;103701;1316;61738;-81
2022/04/02 11:08:52;;;;;;;;;;;;;;;20.73;43.13;99261.92;103710;1316;61793;-83
2022/04/02 11:11:29;;;;;;;;;;;;;;;20.73;43.00;99264.80;104004;1313;73900;-83
2022/04/02 11:14:09;;;;;;;;;;;;;;;20.73;42.88;99264.48;104209;1306;75030;-81
2022/04/02 11:17:01;;;;;;;;;;;;;;;20.73;42.91;99268.19;104466;1305;61191;-80
2022/04/02 11:22:27;;;;;;;;;;;;;;;20.73;43.08;99254.10;104473;1305;73962;-81
2022/04/02 11:25:07;;;;;;;;;;;;;;;20.73;42.92;99255.89;104668;1305;75721;-83
2022/04/02 11:27:43;;;;;;;;;;;;;;;20.73;42.89;99245.15;104549;1305;61278;-81
2022/04/02 11:30:39;;;;;;;;;;;;;;;20.73;43.02;99260.12;104571;1306;61260;-83
2022/04/02 11:33:21;;;;;;;;;;;;;;;20.73;43.17;99249.95;104542;1308;72872;-80
2022/04/02 11:35:51;;;;;;;;;;;;;;;20.74;43.01;99242.76;104627;1306;74816;-82
2022/04/02 11:38:51;;;;;;;;;;;;;;;20.73;42.93;99246.20;104682;1305;61239;-82
2022/04/02 11:41:32;;;;;;;;;;;;;;;20.73;43.05;99238.66;104435;1308;61279;-82
2022/04/02 11:44:32;;;;;;;;;;;;;;;20.73;42.99;99248.15;104480;1307;72892;-84
2022/04/02 11:47:09;;;;;;;;;;;;;;;20.74;42.99;99244.00;104573;1307;74631;-82
2022/04/02 11:49:49;;;;;;;;;;;;;;;;;;;;;
2022/04/02 11:52:57;;;;;;;;;;;;;;;20.73;42.98;99239.39;104559;1308;61280;-83
2022/04/02 11:55:42;;;;;;;;;;;;;;;20.73;42.87;99246.88;104426;1307;72586;-80
2022/04/02 11:58:31;;;;;;;;;;;;;;;20.73;43.04;99241.88;104491;1306;74043;-78
2022/04/02 12:01:06;;;;;;;;;;;;;;;20.74;42.78;99239.70;104528;1308;61295;-83
2022/04/02 12:03:54;;;;;;;;;;;;;;;20.74;42.95;99242.77;104527;1307;61178;-82
2022/04/02 12:06:27;;;;;;;;;;;;;;;20.74;42.76;99235.58;104516;1308;73790;-79
2022/04/02 12:09:13;;;;;;;;;;;;;;;20.74;42.92;99242.73;104660;1306;74762;-82
2022/04/02 12:11:59;;;;;;;;;;;;;;;20.74;42.99;99242.16;104633;1307;61064;-86
2022/04/02 12:14:45;;;;;;;;;;;;;;;20.74;42.75;99231.67;104543;1308;61637;-85
2022/04/02 12:17:21;;;;;;;;;;;;;;;20.73;42.72;99240.27;104833;1305;71873;-84
2022/04/02 12:20:09;;;;;;;;;;;;;;;20.74;42.68;99242.02;104593;1305;75883;-80
2022/04/02 12:22:52;;;;;;;;;;;;;;;;;;;;;
2022/04/02 12:25:48;;;;;;;;;;;;;;;20.74;42.76;99245.07;104816;1305;63287;-81
2022/04/02 12:28:33;;;;;;;;;;;;;;;;;;;;;
2022/04/02 12:31:22;;;;;;;;;;;;;;;20.74;42.70;99227.38;104678;1305;74990;-82
2022/04/02 12:34:20;;;;;;;;;;;;;;;20.74;42.90;99235.77;104594;1306;61195;-83
2022/04/02 12:37:05;;;;;;;;;;;;;;;20.73;42.65;99230.98;104708;1305;61745;-82
2022/04/02 12:39:39;;;;;;;;;;;;;;;20.73;42.72;99242.08;104641;1306;74193;-82
2022/04/02 12:42:17;;;;;;;;;;;;;;;20.73;42.76;99243.65;104739;1305;74517;-80
2022/04/02 12:44:54;;;;;;;;;;;;;;;20.73;42.65;99231.68;104606;1306;61239;-81
2022/04/02 12:47:45;;;;;;;;;;;;;;;20.73;42.61;99223.27;104599;1305;61132;-81
2022/04/02 12:50:41;;;;;;;;;;;;;;;20.73;42.64;99223.84;104553;1306;73829;-85
2022/04/02 12:53:14;;;;;;;;;;;;;;;20.73;42.58;99230.06;104599;1306;74198;-80
2022/04/02 12:55:49;;;;;;;;;;;;;;;20.74;42.68;99225.43;104531;1306;61654;-81
2022/04/02 12:59:04;;;;;;;;;;;;;;;;;;;;;
2022/04/02 13:01:38;;;;;;;;;;;;;;;20.74;42.59;99221.81;104480;1306;72841;-81
2022/04/02 13:04:43;;;;;;;;;;;;;;;;;;;;;
2022/04/02 13:07:15;;;;;;;;;;;;;;;20.74;42.57;99225.57;104747;1305;61128;-84
2022/04/02 13:10:07;;;;;;;;;;;;;;;20.74;42.68;99223.56;104079;1314;61221;-82
2022/04/02 13:12:44;;;;;;;;;;;;;;;20.74;42.59;99219.83;103649;1319;74392;-82
2022/04/02 13:15:21;;;;;;;;;;;;;;;20.75;42.53;99214.79;103724;1317;75181;-81
2022/04/02 13:21:02;;;;;;;;;;;;;;;20.75;42.58;99213.15;103771;1317;61303;-81
2022/04/02 13:23:35;;;;;;;;;;;;;;;20.75;42.60;99216.20;103793;1317;72632;-82
2022/04/02 13:26:31;;;;;;;;;;;;;;;20.75;42.52;99217.06;103018;1323;76399;-82
2022/04/02 13:29:23;;;;;;;;;;;;;;;20.74;42.48;99208.55;103093;1322;61225;-81
2022/04/02 13:32:24;;;;;;;;;;;;;;;20.75;42.43;99203.86;103166;1322;61314;-81
2022/04/02 13:35:10;;;;;;;;;;;;;;;20.75;42.48;99195.42;102562;1324;74068;-81
2022/04/02 13:37:38;;;;;;;;;;;;;;;20.75;42.43;99180.77;102806;1326;76295;-80
2022/04/02 13:40:04;;;;;;;;;;;;;;;20.76;42.47;99176.38;102504;1329;61381;-81
2022/04/02 13:42:43;;;;;;;;;;;;;;;20.75;42.41;99173.77;102608;1326;62642;-80
2022/04/02 13:45:08;;;;;;;;;;;;;;;20.76;42.45;99177.12;102853;1323;72912;-81
2022/04/02 13:47:44;;;;;;;;;;;;;;;20.76;42.34;99173.20;103348;1317;76153;-85
2022/04/02 13:50:33;;;;;;;;;;;;;;;20.76;42.49;99178.73;103500;1319;61272;-82
2022/04/02 13:53:08;;;;;;;;;;;;;;;20.76;42.44;99182.69;103590;1319;61398;-81
2022/04/02 13:55:46;;;;;;;;;;;;;;;20.76;42.52;99187.14;103872;1317;72807;-86
2022/04/02 13:58:31;;;;;;;;;;;;;;;;;;;;;
2022/04/02 14:00:57;;;;;;;;;;;;;;;20.75;42.36;99186.47;103889;1317;61440;-81
2022/04/02 14:03:34;;;;;;;;;;;;;;;20.75;42.28;99188.98;103992;1314;61312;-86
2022/04/02 14:06:31;;;;;;;;;;;;;;;20.75;42.42;99183.28;103504;1319;71615;-83
2022/04/02 14:09:11;;;;;;;;;;;;;;;;;;;;;
2022/04/02 14:11:49;;;;;;;;;;;;;;;20.75;42.46;99188.31;104273;1311;61346;-81
2022/04/02 14:14:26;;;;;;;;;;;;;;;20.74;42.19;99191.19;104237;1313;61565;-79
2022/04/02 14:17:09;;;;;;;;;;;;;;;20.74;42.28;99205.16;104286;1311;73472;-83
2022/04/02 14:19:53;;;;;;;;;;;;;;;;;;;;;
2022/04/02 14:22:20;;;;;;;;;;;;;;;20.73;42.30;99216.54;104292;1311;61212;-84
2022/04/02 14:25:19;;;;;;;;;;;;;;;20.73;42.09;99224.41;104293;1311;61629;-83
2022/04/02 14:28:18;;;;;;;;;;;;;;;20.73;42.25;99229.27;103872;1316;74032;-82
2022/04/02 14:31:19;;;;;;;;;;;;;;;20.72;42.33;99220.21;103900;1316;75692;-81
2022/04/02 14:34:09;;;;;;;;;;;;;;;20.72;42.31;99195.17;103963;1316;61108;-81
2022/04/02 14:37:00;;;;;;;;;;;;;;;20.72;42.25;99160.27;103808;1316;62543;-82
2022/04/02 14:39:59;;;;;;;;;;;;;;;20.72;42.27;99141.91;103622;1316;72583;-82
2022/04/02 14:42:47;;;;;;;;;;;;;;;20.72;42.28;99135.66;102992;1323;75259;-84
2022/04/02 14:45:40;;;;;;;;;;;;;;;20.72;42.33;99123.85;103376;1319;61486;-84
2022/04/02 14:48:39;;;;;;;;;;;;;;;20.72;42.24;99128.16;103829;1317;61293;-81
2022/04/02 14:51:10;;;;;;;;;;;;;;;20.72;42.40;99140.27;103721;1317;73844;-81
2022/04/02 14:53:55;;;;;;;;;;;;;;;20.72;42.01;99151.54;103421;1317;76301;-80
2022/04/02 14:56:58;;;;;;;;;;;;;;;;;;;;;
2022/04/02 15:00:01;;;;;;;;;;;;;;;20.73;42.13;99154.52;103759;1317;61165;-81
2022/04/02 15:02:34;;;;;;;;;;;;;;;20.73;42.10;99158.98;103820;1317;73512;-85
2022/04/02 15:05:30;;;;;;;;;;;;;;;20.73;42.31;99169.75;104261;1311;75806;-82
2022/04/02 15:08:17;;;;;;;;;;;;;;;20.73;42.09;99181.88;104299;1313;61340;-87
2022/04/02 15:10:55;;;;;;;;;;;;;;;20.72;42.14;99187.80;104318;1312;61131;-84
2022/04/02 15:13:36;;;;;;;;;;;;;;;20.72;42.10;99203.89;104368;1311;72994;-83
2022/04/02 15:16:07;;;;;;;;;;;;;;;20.72;42.11;99213.37;104319;1311;75816;-84
2022/04/02 15:18:36;;;;;;;;;;;;;;;20.72;41.92;99221.09;104640;1305;61298;-82
2022/04/02 15:21:12;;;;;;;;;;;;;;;20.72;42.02;99227.94;104911;1305;61288;-82
2022/04/02 15:24:21;;;;;;;;;;;;;;;20.71;42.11;99228.14;104590;1307;73631;-84